Time;durP1;ratioP1;P1;durP2;ratioP2;P2;SDS_P1;SDS_P2;PMS_P1;PMS_P2;Temp;Humidity;BMP_temperature;BMP_pressure;BME280_temperature;BME280_humidity;BME280_pressure;Samples;Min_cycle;Max_cycle;Signal;HPM_P1;HPM_P2
2024/04/21 00:00:49;;;;;;;0.10;0.10;;;5.70;99.90;;;;;;5535737;25;19989;-70
2024/04/21 00:03:15;;;;;;;0.00;0.00;;;;;;;;;;5535807;25;19997;-71
2024/04/21 00:05:41;;;;;;;0.00;0.00;;;;;;;;;;5535985;25;20001;-70
2024/04/21 00:08:08;;;;;;;0.00;0.00;;;;;;;;;;5521704;25;19993;-70
2024/04/21 00:10:34;;;;;;;0.00;0.00;;;;;;;;;;5549184;25;20210;-71
2024/04/21 00:13:00;;;;;;;0.00;0.00;;;;;;;;;;5537638;25;19990;-70
2024/04/21 00:15:26;;;;;;;0.00;0.00;;;;;;;;;;5504196;26;19989;-70
2024/04/21 00:17:52;;;;;;;0.08;0.08;;;5.50;99.90;;;;;;5560859;25;19993;-70
2024/04/21 00:20:17;;;;;;;0.00;0.00;;;5.60;99.90;;;;;;5535695;25;19994;-70
2024/04/21 00:22:43;;;;;;;0.10;0.10;;;5.20;99.90;;;;;;5535592;25;19989;-67
2024/04/21 00:25:09;;;;;;;0.00;0.00;;;;;;;;;;5536931;25;19994;-68
2024/04/21 00:27:35;;;;;;;0.00;0.00;;;;;;;;;;5535349;25;19993;-68
2024/04/21 00:30:01;;;;;;;0.32;0.25;;;;;;;;;;5515143;25;19993;-68
2024/04/21 00:32:27;;;;;;;0.00;0.00;;;;;;;;;;5503460;26;19997;-68
2024/04/21 00:34:53;;;;;;;0.00;0.00;;;5.30;99.90;;;;;;5535090;25;20194;-68
2024/04/21 00:37:19;;;;;;;0.00;0.00;;;;;;;;;;5535430;25;20001;-68
2024/04/21 00:39:45;;;;;;;0.00;0.00;;;;;;;;;;5534756;25;20008;-69
2024/04/21 00:42:11;;;;;;;0.10;0.10;;;;;;;;;;5536315;25;20053;-69
2024/04/21 00:44:37;;;;;;;0.00;0.00;;;5.50;99.40;;;;;;5534962;25;20194;-68
2024/04/21 00:47:03;;;;;;;0.15;0.15;;;5.30;99.00;;;;;;5548456;25;20054;-68
2024/04/21 00:49:29;;;;;;;0.00;0.00;;;;;;;;;;5546713;25;20005;-68
2024/04/21 00:51:55;;;;;;;0.00;0.00;;;;;;;;;;5534938;25;19986;-68
2024/04/21 00:54:21;;;;;;;0.00;0.00;;;;;;;;;;5540979;25;19990;-68
2024/04/21 00:56:48;;;;;;;0.00;0.00;;;;;;;;;;5534943;25;19986;-68
2024/04/21 00:59:16;;;;;;;0.00;0.00;;;5.10;97.50;;;;;;5536234;25;20050;-69
2024/04/21 01:01:45;;;;;;;0.10;0.10;;;4.80;97.60;;;;;;5535339;25;19989;-68
2024/04/21 01:04:11;;;;;;;0.45;0.15;;;5.10;99.90;;;;;;5535101;25;20001;-68
2024/04/21 01:06:37;;;;;;;0.00;0.00;;;5.20;99.80;;;;;;5539050;25;20198;-68
2024/04/21 01:09:03;;;;;;;0.00;0.00;;;;;;;;;;5533614;25;20012;-69
2024/04/21 01:11:29;;;;;;;0.20;0.20;;;4.70;99.90;;;;;;5545907;25;20053;-68
2024/04/21 01:13:55;;;;;;;0.00;0.00;;;;;;;;;;5545773;25;20139;-69
2024/04/21 01:16:20;;;;;;;0.00;0.00;;;4.90;99.90;;;;;;5540294;25;20117;-68
2024/04/21 01:18:46;;;;;;;0.00;0.00;;;4.70;99.90;;;;;;5539802;25;20198;-68
2024/04/21 01:21:13;;;;;;;0.03;0.03;;;;;;;;;;5534544;25;19986;-68
2024/04/21 01:23:39;;;;;;;0.10;0.10;;;;;;;;;;5534682;25;19989;-68
2024/04/21 01:26:05;;;;;;;0.00;0.00;;;;;;;;;;5534209;25;19993;-69
2024/04/21 01:28:31;;;;;;;1.55;0.45;;;;;;;;;;5534543;25;19986;-68
2024/04/21 01:30:57;;;;;;;0.00;0.00;;;;;;;;;;5534342;25;20153;-69
2024/04/21 01:33:24;;;;;;;0.00;0.00;;;;;;;;;;5535632;25;20046;-69
2024/04/21 01:35:50;;;;;;;0.00;0.00;;;;;;;;;;5534447;25;19985;-69
2024/04/21 01:38:16;;;;;;;0.00;0.00;;;4.40;99.70;;;;;;5534404;25;20005;-68
2024/04/21 01:40:42;;;;;;;0.00;0.00;;;;;;;;;;5534542;25;19990;-68
2024/04/21 01:43:08;;;;;;;0.00;0.00;;;4.20;99.90;;;;;;5534685;25;20004;-69
2024/04/21 01:45:34;;;;;;;0.00;0.00;;;;;;;;;;5534345;25;20024;-70
2024/04/21 01:48:00;;;;;;;0.00;0.00;;;;;;;;;;5548021;25;20238;-69
2024/04/21 01:50:26;;;;;;;0.22;0.10;;;;;;;;;;5503589;26;19996;-69
2024/04/21 01:52:52;;;;;;;0.00;0.00;;;;;;;;;;5534052;25;20001;-69
2024/04/21 01:55:19;;;;;;;0.00;0.00;;;;;;;;;;5538907;25;19985;-70
2024/04/21 01:57:44;;;;;;;0.00;0.00;;;;;;;;;;5497697;25;20068;-69
2024/04/21 02:00:11;;;;;;;0.10;0.10;;;;;;;;;;5539449;25;20007;-71
2024/04/21 02:02:36;;;;;;;0.20;0.20;;;4.40;99.90;;;;;;5534810;25;20160;-69
2024/04/21 02:05:02;;;;;;;0.00;0.00;;;4.60;99.90;;;;;;5533930;25;20001;-69
2024/04/21 02:07:28;;;;;;;0.00;0.00;;;;;;;;;;5535600;25;20001;-70
2024/04/21 02:09:54;;;;;;;0.00;0.00;;;;;;;;;;5502447;25;20002;-69
2024/04/21 02:12:20;;;;;;;0.03;0.03;;;;;;;;;;5534537;25;20005;-70
2024/04/21 02:14:46;;;;;;;0.00;0.00;;;;;;;;;;5533886;25;19989;-70
2024/04/21 02:17:12;;;;;;;0.00;0.00;;;;;;;;;;5501835;26;20157;-70
2024/04/21 02:19:38;;;;;;;0.00;0.00;;;;;;;;;;5537579;25;20223;-70
2024/04/21 02:22:04;;;;;;;0.00;0.00;;;4.60;99.90;;;;;;5536846;25;19985;-69
2024/04/21 02:24:39;;;;;;;0.00;0.00;;;4.30;99.40;;;;;;5496692;26;20038;-70
2024/04/21 02:27:05;;;;;;;2.85;0.28;;;4.40;99.90;;;;;;5501315;25;19989;-69
2024/04/21 02:29:31;;;;;;;0.00;0.00;;;4.40;99.90;;;;;;5501971;26;19997;-70
2024/04/21 02:31:57;;;;;;;0.00;0.00;;;;;;;;;;5533368;25;20514;-70
2024/04/21 02:34:22;;;;;;;0.00;0.00;;;4.20;99.90;;;;;;5533727;25;19993;-69
2024/04/21 02:36:48;;;;;;;0.00;0.00;;;;;;;;;;5533574;25;20194;-70
2024/04/21 02:39:15;;;;;;;0.03;0.03;;;;;;;;;;5533620;25;20143;-70
2024/04/21 02:41:41;;;;;;;0.03;0.03;;;;;;;;;;5534869;25;19993;-69
2024/04/21 02:44:07;;;;;;;0.00;0.00;;;;;;;;;;5533315;25;19985;-69
2024/04/21 02:46:33;;;;;;;0.00;0.00;;;4.00;99.90;;;;;;5501817;26;20142;-69
2024/04/21 02:49:00;;;;;;;0.10;0.10;;;;;;;;;;5547180;25;19992;-69
2024/04/21 02:51:26;;;;;;;0.00;0.00;;;;;;;;;;5501477;26;19993;-69
2024/04/21 02:53:52;;;;;;;0.70;0.50;;;;;;;;;;5533183;25;19989;-69
2024/04/21 02:56:18;;;;;;;0.00;0.00;;;;;;;;;;5533244;25;19989;-68
2024/04/21 02:58:44;;;;;;;0.00;0.00;;;;;;;;;;5534074;25;19989;-68
2024/04/21 03:01:10;;;;;;;0.10;0.10;;;;;;;;;;5501268;26;19989;-69
2024/04/21 03:03:36;;;;;;;0.00;0.00;;;;;;;;;;5532976;25;20050;-70
2024/04/21 03:06:03;;;;;;;0.05;0.05;;;;;;;;;;5532772;25;20000;-70
2024/04/21 03:08:29;;;;;;;0.05;0.05;;;;;;;;;;5532924;25;20001;-69
2024/04/21 03:10:55;;;;;;;0.00;0.00;;;;;;;;;;5532531;25;19993;-69
2024/04/21 03:13:21;;;;;;;0.47;0.20;;;;;;;;;;5532761;25;19993;-68
2024/04/21 03:15:48;;;;;;;0.00;0.00;;;;;;;;;;5533788;25;19993;-68
2024/04/21 03:18:14;;;;;;;0.10;0.10;;;;;;;;;;5532465;25;19993;-69
2024/04/21 03:20:40;;;;;;;0.55;0.20;;;;;;;;;;5532775;25;20034;-68
2024/04/21 03:23:07;;;;;;;0.10;0.10;;;;;;;;;;5500716;25;19990;-68
2024/04/21 03:25:32;;;;;;;0.00;0.00;;;3.90;99.90;;;;;;5532786;25;20087;-68
2024/04/21 03:27:58;;;;;;;0.55;0.43;;;;;;;;;;5531668;25;20107;-68
2024/04/21 03:30:24;;;;;;;0.10;0.10;;;;;;;;;;5531511;25;20014;-68
2024/04/21 03:32:53;;;;;;;0.08;0.08;;;4.00;99.90;;;;;;5533565;25;19996;-68
2024/04/21 03:35:19;;;;;;;0.00;0.00;;;;;;;;;;5535383;25;19989;-68
2024/04/21 03:37:45;;;;;;;0.00;0.00;;;;;;;;;;5509570;25;20000;-67
2024/04/21 03:40:11;;;;;;;0.00;0.00;;;;;;;;;;5536358;25;20097;-68
2024/04/21 03:42:37;;;;;;;0.00;0.00;;;;;;;;;;5536157;25;20204;-69
2024/04/21 03:45:08;;;;;;;0.10;0.10;;;3.90;99.90;;;;;;5536012;25;20329;-69
2024/04/21 03:47:34;;;;;;;0.08;0.03;;;;;;;;;;5498082;26;19994;-67
2024/04/21 03:50:00;;;;;;;0.30;0.20;;;4.00;99.90;;;;;;5547455;25;20041;-68
2024/04/21 03:52:25;;;;;;;0.00;0.00;;;3.70;99.90;;;;;;5536029;25;20005;-71
2024/04/21 03:54:51;;;;;;;0.47;0.22;;;;;;;;;;5535543;25;20000;-71
2024/04/21 03:57:17;;;;;;;1.85;0.28;;;3.80;99.90;;;;;;5535800;25;19989;-68
2024/04/21 03:59:43;;;;;;;0.43;0.40;;;;;;;;;;5498333;25;20050;-68
2024/04/21 04:02:09;;;;;;;0.00;0.00;;;3.90;99.90;;;;;;5535869;25;20194;-69
2024/04/21 04:04:35;;;;;;;0.00;0.00;;;3.80;99.90;;;;;;5535816;25;20000;-67
2024/04/21 04:07:01;;;;;;;0.00;0.00;;;;;;;;;;5536628;25;20001;-69
2024/04/21 04:09:27;;;;;;;0.20;0.10;;;;;;;;;;5503898;26;19989;-69
2024/04/21 04:11:53;;;;;;;0.00;0.00;;;;;;;;;;5546844;25;19988;-70
2024/04/21 04:14:19;;;;;;;0.00;0.00;;;;;;;;;;5547260;25;19997;-70
2024/04/21 04:16:46;;;;;;;0.10;0.10;;;;;;;;;;5535438;25;19989;-67
2024/04/21 04:19:12;;;;;;;0.10;0.10;;;;;;;;;;5545957;25;19990;-66
2024/04/21 04:21:38;;;;;;;0.00;0.00;;;;;;;;;;5503793;26;19993;-67
2024/04/21 04:24:04;;;;;;;0.00;0.00;;;;;;;;;;5536482;25;20005;-66
2024/04/21 04:26:30;;;;;;;0.00;0.00;;;;;;;;;;5535374;25;20041;-66
2024/04/21 04:28:56;;;;;;;0.00;0.00;;;;;;;;;;5535428;25;20239;-67
2024/04/21 04:31:22;;;;;;;0.00;0.00;;;;;;;;;;5503553;26;19996;-68
2024/04/21 04:33:48;;;;;;;0.47;0.20;;;;;;;;;;5535305;25;19990;-67
2024/04/21 04:36:14;;;;;;;0.32;0.17;;;;;;;;;;5535421;25;19998;-66
2024/04/21 04:38:40;;;;;;;0.00;0.00;;;;;;;;;;5540653;25;19996;-67
2024/04/21 04:41:06;;;;;;;0.00;0.00;;;;;;;;;;5536660;25;20000;-66
2024/04/21 04:43:33;;;;;;;0.32;0.20;;;;;;;;;;5534710;25;19990;-67
2024/04/21 04:45:58;;;;;;;0.05;0.05;;;4.00;99.90;;;;;;5539083;25;19994;-67
2024/04/21 04:48:24;;;;;;;0.00;0.00;;;;;;;;;;5556538;25;20360;-68
2024/04/21 04:50:50;;;;;;;0.20;0.20;;;;;;;;;;5539480;25;20033;-68
2024/04/21 04:53:16;;;;;;;0.10;0.10;;;;;;;;;;5534916;25;19989;-67
2024/04/21 04:55:45;;;;;;;0.00;0.00;;;4.10;99.90;;;;;;5539244;25;20045;-67
2024/04/21 04:58:11;;;;;;;0.00;0.00;;;;;;;;;;5536999;25;20489;-68
2024/04/21 05:00:37;;;;;;;0.00;0.00;;;4.20;99.90;;;;;;5534839;25;20000;-68
2024/04/21 05:03:03;;;;;;;0.00;0.00;;;;;;;;;;5539895;25;19993;-66
2024/04/21 05:05:29;;;;;;;0.95;0.43;;;;;;;;;;5547686;25;20111;-65
2024/04/21 05:07:55;;;;;;;1.35;0.20;;;;;;;;;;5538040;25;20088;-67
2024/04/21 05:10:21;;;;;;;0.00;0.00;;;;;;;;;;5534811;25;20280;-67
2024/04/21 05:12:47;;;;;;;0.00;0.00;;;4.40;99.90;;;;;;5534510;25;19985;-68
2024/04/21 05:15:13;;;;;;;0.03;0.03;;;;;;;;;;5535936;25;20503;-67
2024/04/21 05:17:39;;;;;;;0.00;0.00;;;;;;;;;;5549905;25;20221;-69
2024/04/21 05:20:05;;;;;;;0.10;0.10;;;4.40;99.90;;;;;;5547607;25;20202;-69
2024/04/21 05:22:31;;;;;;;0.10;0.10;;;;;;;;;;5502952;26;20000;-68
2024/04/21 05:24:57;;;;;;;0.35;0.10;;;4.30;99.90;;;;;;5534239;25;20004;-68
2024/04/21 05:27:23;;;;;;;0.13;0.13;;;;;;;;;;5534517;25;20190;-66
2024/04/21 05:29:53;;;;;;;0.00;0.00;;;4.60;99.90;;;;;;5538048;25;19986;-66
2024/04/21 05:32:20;;;;;;;0.00;0.00;;;;;;;;;;5535865;25;19985;-66
2024/04/21 05:34:45;;;;;;;0.35;0.35;;;4.70;99.90;;;;;;5549672;25;19985;-68
2024/04/21 05:37:11;;;;;;;0.22;0.22;;;;;;;;;;5534472;25;20105;-68
2024/04/21 05:39:37;;;;;;;0.00;0.00;;;;;;;;;;5537643;25;19989;-68
2024/04/21 05:42:03;;;;;;;0.00;0.00;;;;;;;;;;5534325;25;20724;-67
2024/04/21 05:44:29;;;;;;;0.17;0.15;;;4.70;99.90;;;;;;5534473;25;19994;-67
2024/04/21 05:46:55;;;;;;;0.03;0.03;;;;;;;;;;5534223;25;20038;-68
2024/04/21 05:49:21;;;;;;;0.22;0.20;;;;;;;;;;5544029;25;20118;-68
2024/04/21 05:51:47;;;;;;;0.00;0.00;;;5.00;99.90;;;;;;5502230;25;20217;-68
2024/04/21 05:54:13;;;;;;;0.00;0.00;;;;;;;;;;5502440;26;19981;-70
2024/04/21 05:56:39;;;;;;;0.45;0.40;;;;;;;;;;5546050;25;19981;-67
2024/04/21 05:59:05;;;;;;;0.55;0.55;;;;;;;;;;5533796;25;19986;-67
2024/04/21 06:01:31;;;;;;;0.00;0.00;;;5.30;99.90;;;;;;5534033;25;19986;-67
2024/04/21 06:03:57;;;;;;;0.00;0.00;;;;;;;;;;5476143;25;20293;-68
2024/04/21 06:06:23;;;;;;;0.00;0.00;;;;;;;;;;5545466;25;19993;-69
2024/04/21 06:08:51;;;;;;;0.00;0.00;;;5.50;98.20;;;;;;5539828;25;19985;-69
2024/04/21 06:11:17;;;;;;;0.10;0.10;;;;;;;;;;5534521;25;20170;-69
2024/04/21 06:13:43;;;;;;;0.00;0.00;;;;;;;;;;5502292;25;20107;-69
2024/04/21 06:16:12;;;;;;;0.00;0.00;;;5.80;99.90;;;;;;5523377;25;20000;-68
2024/04/21 06:18:38;;;;;;;0.00;0.00;;;5.70;98.50;;;;;;5533829;25;20012;-69
2024/04/21 06:21:03;;;;;;;2.80;0.47;;;5.80;98.40;;;;;;5537852;25;20001;-68
2024/04/21 06:23:29;;;;;;;0.00;0.00;;;5.80;98.40;;;;;;5535211;25;19993;-69
2024/04/21 06:25:55;;;;;;;0.03;0.03;;;5.80;99.90;;;;;;5533685;25;19996;-68
2024/04/21 06:28:20;;;;;;;0.00;0.00;;;5.90;98.50;;;;;;5540307;25;19985;-69
2024/04/21 06:30:46;;;;;;;0.00;0.00;;;6.00;98.50;;;;;;5545275;25;20258;-69
2024/04/21 06:33:12;;;;;;;1.27;0.32;;;6.20;98.20;;;;;;5533853;25;20005;-69
2024/04/21 06:35:37;;;;;;;0.13;0.10;;;6.30;97.60;;;;;;5539471;25;19986;-69
2024/04/21 06:38:03;;;;;;;0.00;0.00;;;6.30;97.40;;;;;;5538673;25;20073;-69
2024/04/21 06:40:29;;;;;;;0.10;0.10;;;6.30;97.10;;;;;;5507925;25;19994;-70
2024/04/21 06:42:55;;;;;;;0.65;0.20;;;6.30;97.60;;;;;;5530138;25;20000;-68
2024/04/21 06:45:20;;;;;;;0.10;0.10;;;6.30;97.60;;;;;;5542105;25;20741;-69
2024/04/21 06:47:46;;;;;;;0.10;0.10;;;6.30;97.80;;;;;;5554040;25;20148;-68
2024/04/21 06:50:12;;;;;;;0.20;0.15;;;6.30;97.80;;;;;;5533283;25;19989;-69
2024/04/21 06:52:38;;;;;;;0.00;0.00;;;6.40;98.00;;;;;;5533402;25;19989;-67
2024/04/21 06:55:03;;;;;;;0.15;0.15;;;6.40;99.90;;;;;;5470894;25;20012;-67
2024/04/21 06:57:31;;;;;;;0.10;0.10;;;6.80;99.90;;;;;;5534546;25;20005;-68
2024/04/21 06:59:57;;;;;;;0.00;0.00;;;6.50;99.90;;;;;;5546685;25;20012;-67
2024/04/21 07:02:23;;;;;;;0.00;0.00;;;6.60;99.90;;;;;;5542535;25;19993;-69
2024/04/21 07:04:48;;;;;;;0.00;0.00;;;6.70;99.90;;;;;;5538214;25;20126;-69
2024/04/21 07:07:14;;;;;;;0.20;0.20;;;6.70;96.60;;;;;;5478505;26;20002;-68
2024/04/21 07:09:40;;;;;;;0.00;0.00;;;6.80;96.50;;;;;;5497631;25;20056;-68
2024/04/21 07:12:09;;;;;;;0.55;0.25;;;6.80;96.30;;;;;;5532737;25;19985;-68
2024/04/21 07:14:34;;;;;;;0.00;0.00;;;6.90;96.30;;;;;;5548243;25;19993;-68
2024/04/21 07:17:00;;;;;;;0.00;0.00;;;7.20;96.20;;;;;;5546375;25;19995;-66
2024/04/21 07:19:25;;;;;;;0.10;0.10;;;7.30;95.30;;;;;;5558113;25;19995;-68
2024/04/21 07:21:57;;;;;;;0.00;0.00;;;7.40;95.30;;;;;;5474971;25;20009;-69
2024/04/21 07:24:23;;;;;;;0.35;0.35;;;7.40;94.90;;;;;;5547502;25;20004;-68
2024/04/21 07:26:49;;;;;;;0.20;0.13;;;7.50;94.70;;;;;;5532470;25;20190;-67
2024/04/21 07:29:14;;;;;;;0.10;0.10;;;7.40;95.00;;;;;;5534535;25;19985;-68
2024/04/21 07:31:40;;;;;;;0.13;0.13;;;7.50;95.00;;;;;;5533709;25;19992;-69
2024/04/21 07:34:06;;;;;;;0.00;0.00;;;7.70;96.10;;;;;;5532778;25;20289;-70
2024/04/21 07:36:32;;;;;;;0.00;0.00;;;7.70;94.60;;;;;;5553438;25;19995;-70
2024/04/21 07:38:57;;;;;;;0.20;0.20;;;7.80;94.50;;;;;;5543463;25;20100;-70
2024/04/21 07:41:23;;;;;;;0.00;0.00;;;7.80;94.40;;;;;;5532317;25;20152;-68
2024/04/21 07:43:49;;;;;;;0.08;0.08;;;7.80;94.20;;;;;;5536624;25;19997;-68
2024/04/21 07:46:14;;;;;;;0.00;0.00;;;8.00;94.20;;;;;;5535151;25;19993;-69
2024/04/21 07:48:40;;;;;;;0.00;0.00;;;8.50;93.30;;;;;;5533126;25;19997;-69
2024/04/21 07:51:06;;;;;;;0.17;0.10;;;8.90;91.70;;;;;;5534351;25;19993;-68
2024/04/21 07:53:32;;;;;;;0.10;0.10;;;;;;;;;;5532758;25;19993;-69
2024/04/21 07:55:58;;;;;;;0.10;0.10;;;;;;;;;;5542205;25;20202;-72
2024/04/21 07:58:23;;;;;;;0.10;0.10;;;9.90;87.20;;;;;;5544054;25;20013;-68
2024/04/21 08:00:49;;;;;;;0.10;0.10;;;10.30;95.40;;;;;;5531956;25;20297;-68
2024/04/21 08:03:15;;;;;;;0.10;0.10;;;10.50;94.60;;;;;;5532145;25;20198;-68
2024/04/21 08:05:40;;;;;;;0.00;0.00;;;10.40;91.80;;;;;;5532997;25;19985;-69
2024/04/21 08:08:06;;;;;;;0.65;0.32;;;11.00;84.90;;;;;;5533763;25;19990;-69
2024/04/21 08:10:32;;;;;;;0.00;0.00;;;11.30;94.30;;;;;;5500126;26;20049;-67
2024/04/21 08:12:58;;;;;;;0.00;0.00;;;;;;;;;;5533301;25;19993;-68
2024/04/21 08:15:24;;;;;;;0.10;0.10;;;;;;;;;;5537037;25;20095;-67
2024/04/21 08:17:50;;;;;;;0.38;0.20;;;10.80;93.20;;;;;;5474631;25;20182;-68
2024/04/21 08:20:16;;;;;;;0.17;0.13;;;10.80;82.60;;;;;;5548159;25;20111;-68
2024/04/21 08:22:41;;;;;;;0.32;0.32;;;10.30;95.30;;;;;;5553850;25;20208;-67
2024/04/21 08:25:08;;;;;;;0.10;0.10;;;;;;;;;;5535468;25;20482;-67
2024/04/21 08:27:35;;;;;;;0.10;0.10;;;;;;;;;;5535384;25;20154;-67
2024/04/21 08:30:01;;;;;;;1.13;0.47;;;10.20;89.90;;;;;;5515697;25;20093;-67
2024/04/21 08:32:27;;;;;;;0.22;0.22;;;10.20;92.80;;;;;;5534720;25;19994;-67
2024/04/21 08:34:53;;;;;;;0.10;0.10;;;;;;;;;;5534486;25;20042;-67
2024/04/21 08:37:19;;;;;;;0.00;0.00;;;;;;;;;;5535971;25;19989;-67
2024/04/21 08:39:46;;;;;;;3.85;0.20;;;9.90;97.10;;;;;;5534168;25;20002;-67
2024/04/21 08:42:12;;;;;;;0.15;0.15;;;9.70;88.00;;;;;;5539315;25;19984;-67
2024/04/21 08:44:38;;;;;;;0.30;0.30;;;9.40;89.90;;;;;;5534531;25;19994;-67
2024/04/21 08:47:08;;;;;;;0.00;0.00;;;9.70;88.40;;;;;;5534710;25;20005;-67
2024/04/21 08:49:34;;;;;;;0.10;0.10;;;10.10;87.60;;;;;;5534763;25;20017;-67
2024/04/21 08:52:01;;;;;;;0.08;0.08;;;10.70;92.50;;;;;;5535376;25;19985;-68
2024/04/21 08:54:28;;;;;;;0.20;0.20;;;;;;;;;;5536067;25;20207;-68
2024/04/21 08:56:56;;;;;;;0.43;0.43;;;10.80;83.10;;;;;;5472823;25;20497;-67
2024/04/21 08:59:24;;;;;;;0.13;0.13;;;11.20;80.70;;;;;;5534622;25;20209;-67
2024/04/21 09:01:51;;;;;;;0.43;0.10;;;11.40;79.00;;;;;;5548538;25;19981;-67
2024/04/21 09:04:17;;;;;;;0.32;0.30;;;11.60;78.70;;;;;;5543374;25;19992;-67
2024/04/21 09:06:45;;;;;;;0.10;0.10;;;11.60;78.80;;;;;;5541963;25;19985;-67
2024/04/21 09:09:10;;;;;;;0.00;0.00;;;11.20;85.70;;;;;;5548163;25;19992;-67
2024/04/21 09:11:39;;;;;;;0.00;0.00;;;11.10;90.00;;;;;;5545528;25;19980;-67
2024/04/21 09:14:04;;;;;;;0.22;0.20;;;10.80;89.10;;;;;;5563325;25;19989;-72
2024/04/21 09:16:30;;;;;;;0.10;0.10;;;11.60;85.90;;;;;;5544569;25;20163;-71
2024/04/21 09:18:56;;;;;;;0.15;0.15;;;11.40;92.90;;;;;;5534657;25;20004;-69
2024/04/21 09:21:22;;;;;;;0.10;0.10;;;11.90;91.70;;;;;;5534413;25;20304;-66
2024/04/21 09:23:47;;;;;;;0.63;0.17;;;11.90;80.60;;;;;;5534322;25;19992;-66
2024/04/21 09:26:13;;;;;;;0.38;0.38;;;11.70;84.90;;;;;;5534206;25;19993;-68
2024/04/21 09:28:39;;;;;;;0.10;0.10;;;12.00;92.60;;;;;;5538705;25;20020;-68
2024/04/21 09:31:05;;;;;;;0.05;0.05;;;12.10;91.60;;;;;;5533866;25;20030;-68
2024/04/21 09:33:31;;;;;;;0.10;0.10;;;;;;;;;;5550429;25;20191;-68
2024/04/21 09:35:58;;;;;;;0.17;0.17;;;11.90;76.00;;;;;;5534817;25;20000;-70
2024/04/21 09:38:24;;;;;;;0.00;0.00;;;;;;;;;;5547843;25;19995;-68
2024/04/21 09:40:54;;;;;;;0.10;0.10;;;11.20;92.70;;;;;;5537317;25;19988;-68
2024/04/21 09:43:21;;;;;;;0.10;0.10;;;11.30;78.80;;;;;;5545955;25;19982;-69
2024/04/21 09:45:50;;;;;;;0.10;0.10;;;11.80;91.20;;;;;;5549125;25;20198;-69
2024/04/21 09:48:18;;;;;;;2.33;0.68;;;11.80;92.40;;;;;;5556228;25;20007;-66
2024/04/21 09:50:44;;;;;;;0.10;0.10;;;;;;;;;;5547932;25;20259;-66
2024/04/21 09:53:11;;;;;;;0.00;0.00;;;11.70;92.40;;;;;;5539646;25;20197;-67
2024/04/21 09:55:38;;;;;;;0.10;0.10;;;12.30;92.30;;;;;;5534321;25;20393;-66
2024/04/21 09:58:11;;;;;;;0.10;0.10;;;13.00;93.90;;;;;;5534403;25;20005;-66
2024/04/21 10:00:39;;;;;;;0.30;0.30;;;12.50;76.10;;;;;;5533828;25;20101;-66
2024/04/21 10:03:08;;;;;;;0.10;0.10;;;12.60;74.60;;;;;;5539596;25;20125;-66
2024/04/21 10:05:35;;;;;;;0.10;0.10;;;12.60;75.20;;;;;;5541398;25;19993;-66
2024/04/21 10:08:06;;;;;;;0.22;0.20;;;12.80;74.50;;;;;;5472271;25;19994;-68
2024/04/21 10:10:35;;;;;;;0.10;0.10;;;13.20;73.50;;;;;;5534787;25;19989;-67
2024/04/21 10:13:01;;;;;;;0.20;0.20;;;13.10;91.30;;;;;;5534598;25;20001;-66
2024/04/21 10:15:28;;;;;;;0.10;0.10;;;13.30;72.50;;;;;;5544749;25;20201;-66
2024/04/21 10:17:55;;;;;;;4.00;0.45;;;13.60;70.70;;;;;;5547298;25;19985;-67
2024/04/21 10:20:36;;;;;;;0.20;0.20;;;13.60;70.90;;;;;;5543630;25;19986;-68
2024/04/21 10:23:12;;;;;;;0.10;0.10;;;14.00;69.70;;;;;;5534891;25;20005;-66
2024/04/21 10:25:39;;;;;;;0.10;0.10;;;14.10;70.50;;;;;;5545366;25;20109;-66
2024/04/21 10:28:10;;;;;;;0.10;0.10;;;14.10;70.10;;;;;;5534246;25;19996;-67
2024/04/21 10:30:37;;;;;;;0.57;0.30;;;14.00;70.50;;;;;;5533507;25;20014;-67
2024/04/21 10:33:10;;;;;;;0.15;0.15;;;14.20;68.90;;;;;;5537836;25;19996;-66
2024/04/21 10:35:40;;;;;;;0.00;0.00;;;14.20;69.50;;;;;;5531531;25;19985;-67
2024/04/21 10:38:07;;;;;;;0.10;0.10;;;14.10;69.70;;;;;;5532422;25;19985;-66
2024/04/21 10:40:40;;;;;;;0.00;0.00;;;14.00;69.50;;;;;;5531126;25;20001;-66
2024/04/21 10:43:08;;;;;;;0.10;0.10;;;13.80;70.70;;;;;;5529760;25;19988;-66
2024/04/21 10:45:38;;;;;;;0.30;0.30;;;13.60;71.70;;;;;;5531699;25;20054;-66
2024/04/21 10:48:05;;;;;;;0.10;0.10;;;13.80;70.40;;;;;;5531238;25;20004;-66
2024/04/21 10:50:34;;;;;;;0.10;0.10;;;14.60;91.00;;;;;;5531245;25;20279;-67
2024/04/21 10:53:00;;;;;;;0.13;0.13;;;14.40;70.00;;;;;;5536905;25;19993;-66
2024/04/21 10:55:26;;;;;;;0.10;0.10;;;14.50;66.90;;;;;;5533631;25;20000;-66
2024/04/21 10:57:52;;;;;;;0.10;0.00;;;14.40;68.90;;;;;;5532827;25;19994;-67
2024/04/21 11:00:18;;;;;;;0.00;0.00;;;14.20;69.80;;;;;;5533227;25;20183;-66
2024/04/21 11:02:43;;;;;;;0.10;0.10;;;13.90;70.50;;;;;;5548527;25;19985;-67
2024/04/21 11:05:09;;;;;;;0.00;0.00;;;13.60;71.20;;;;;;5533234;25;19989;-66
2024/04/21 11:07:35;;;;;;;0.20;0.20;;;13.80;91.30;;;;;;5532784;25;20021;-66
2024/04/21 11:10:02;;;;;;;0.00;0.00;;;13.60;70.20;;;;;;5532831;25;20000;-66
2024/04/21 11:12:29;;;;;;;0.00;0.00;;;13.60;69.30;;;;;;5534146;25;20051;-66
2024/04/21 11:14:59;;;;;;;0.00;0.00;;;13.90;68.30;;;;;;5532787;25;20000;-67
2024/04/21 11:17:25;;;;;;;0.10;0.10;;;14.30;90.00;;;;;;5532597;25;20102;-67
2024/04/21 11:19:50;;;;;;;0.10;0.10;;;14.30;67.50;;;;;;5532399;25;20005;-66
2024/04/21 11:22:17;;;;;;;0.30;0.30;;;14.60;89.10;;;;;;5541916;25;19989;-67
2024/04/21 11:24:44;;;;;;;0.00;0.00;;;14.50;66.80;;;;;;5532527;25;19996;-66
2024/04/21 11:27:13;;;;;;;0.08;0.08;;;14.60;66.90;;;;;;5517088;25;19993;-66
2024/04/21 11:29:46;;;;;;;0.15;0.15;;;14.90;66.10;;;;;;5533547;25;20004;-67
2024/04/21 11:32:11;;;;;;;1.75;0.73;;;15.20;65.80;;;;;;5536842;25;20217;-67
2024/04/21 11:34:37;;;;;;;0.00;0.00;;;15.30;65.00;;;;;;5472607;26;20053;-66
2024/04/21 11:37:04;;;;;;;0.08;0.08;;;15.00;65.20;;;;;;5531000;25;19994;-66
2024/04/21 11:39:30;;;;;;;0.00;0.00;;;14.90;66.00;;;;;;5532100;25;19990;-66
2024/04/21 11:41:56;;;;;;;0.00;0.00;;;15.10;65.40;;;;;;5535311;25;19988;-68
2024/04/21 11:44:22;;;;;;;0.30;0.20;;;15.20;64.30;;;;;;5551460;25;19989;-67
2024/04/21 11:46:51;;;;;;;0.10;0.10;;;15.10;87.70;;;;;;5470393;25;20064;-67
2024/04/21 11:49:17;;;;;;;0.10;0.10;;;15.40;64.90;;;;;;5535704;25;19981;-66
2024/04/21 11:51:42;;;;;;;0.00;0.00;;;15.10;64.60;;;;;;5532451;25;20039;-66
2024/04/21 11:54:08;;;;;;;0.10;0.10;;;15.10;65.10;;;;;;5537719;25;20061;-66
2024/04/21 11:56:35;;;;;;;0.22;0.22;;;15.20;64.70;;;;;;5543980;25;19985;-67
2024/04/21 11:59:00;;;;;;;0.10;0.10;;;15.50;64.30;;;;;;5536755;25;19993;-66
2024/04/21 12:01:26;;;;;;;0.10;0.10;;;15.60;63.10;;;;;;5482987;25;19983;-67
2024/04/21 12:03:52;;;;;;;0.00;0.00;;;15.60;62.90;;;;;;5549785;25;19987;-67
2024/04/21 12:06:17;;;;;;;0.05;0.05;;;15.70;62.30;;;;;;5533445;25;20217;-66
2024/04/21 12:08:45;;;;;;;0.10;0.10;;;15.20;63.40;;;;;;5534956;25;19994;-67
2024/04/21 12:11:11;;;;;;;0.32;0.17;;;14.20;87.10;;;;;;5535238;25;19993;-67
2024/04/21 12:13:39;;;;;;;0.30;0.30;;;14.30;65.00;;;;;;5535270;25;19982;-66
2024/04/21 12:16:04;;;;;;;0.13;0.13;;;14.40;65.50;;;;;;5535380;25;19998;-67
2024/04/21 12:18:30;;;;;;;0.10;0.10;;;14.70;64.10;;;;;;5539322;25;19996;-66
2024/04/21 12:20:56;;;;;;;1.58;0.40;;;14.90;64.40;;;;;;5473478;25;20067;-67
2024/04/21 12:23:21;;;;;;;0.43;0.43;;;15.20;62.90;;;;;;5534622;25;19997;-67
2024/04/21 12:25:47;;;;;;;0.10;0.10;;;15.30;63.10;;;;;;5547278;25;19985;-67
2024/04/21 12:28:13;;;;;;;0.43;0.13;;;15.60;62.20;;;;;;5548166;25;19986;-67
2024/04/21 12:30:38;;;;;;;0.00;0.00;;;15.70;61.30;;;;;;5533516;25;20017;-67
2024/04/21 12:33:05;;;;;;;0.70;0.32;;;15.40;61.50;;;;;;5533241;25;20154;-67
2024/04/21 12:35:31;;;;;;;0.03;0.00;;;15.10;61.40;;;;;;5536398;25;20017;-67
2024/04/21 12:37:56;;;;;;;0.00;0.00;;;15.10;62.60;;;;;;5535560;25;19993;-67
2024/04/21 12:40:22;;;;;;;0.00;0.00;;;15.10;64.00;;;;;;5478985;26;20093;-66
2024/04/21 12:42:48;;;;;;;0.10;0.10;;;15.20;84.80;;;;;;5529836;25;19993;-67
2024/04/21 12:45:14;;;;;;;0.10;0.10;;;15.50;61.70;;;;;;5535260;25;19996;-67
2024/04/21 12:47:39;;;;;;;0.10;0.10;;;15.60;62.10;;;;;;5535125;25;19988;-67
2024/04/21 12:50:05;;;;;;;0.15;0.10;;;16.00;61.10;;;;;;5534990;25;19996;-67
2024/04/21 12:52:32;;;;;;;0.57;0.22;;;15.90;61.00;;;;;;5534904;25;20379;-67
2024/04/21 12:54:58;;;;;;;0.05;0.05;;;15.70;61.20;;;;;;5532387;25;19986;-67
2024/04/21 12:57:24;;;;;;;1.00;0.45;;;15.50;61.60;;;;;;5476119;26;19997;-67
2024/04/21 12:59:49;;;;;;;0.65;0.10;;;15.50;61.90;;;;;;5529214;25;19997;-66
2024/04/21 13:02:18;;;;;;;0.60;0.28;;;15.30;61.80;;;;;;5534824;25;19990;-66
2024/04/21 13:04:44;;;;;;;0.10;0.10;;;15.70;62.20;;;;;;5534551;25;20095;-66
2024/04/21 13:07:11;;;;;;;1.25;0.30;;;16.30;62.10;;;;;;5481452;26;20008;-67
2024/04/21 13:09:37;;;;;;;0.38;0.20;;;17.20;60.80;;;;;;5536798;25;19988;-67
2024/04/21 13:12:04;;;;;;;0.20;0.20;;;18.40;59.20;;;;;;5534515;25;20000;-67
2024/04/21 13:14:29;;;;;;;0.15;0.15;;;18.70;68.20;;;;;;5534989;25;19999;-66
2024/04/21 13:16:55;;;;;;;0.00;0.00;;;17.60;71.30;;;;;;5534869;25;19985;-66
2024/04/21 13:19:23;;;;;;;0.10;0.08;;;16.70;61.60;;;;;;5556794;25;19994;-66
2024/04/21 13:21:50;;;;;;;0.10;0.10;;;16.30;73.60;;;;;;5540332;25;19997;-66
2024/04/21 13:24:17;;;;;;;0.00;0.00;;;;;;;;;;5540675;25;20108;-66